createdAt,value
2018-01-21T07:54:04.579Z,66.92
2018-01-21T07:56:35.632Z,66.38
2018-01-21T07:59:06.702Z,66.15
2018-01-21T08:01:37.731Z,66.12
2018-01-21T08:04:08.842Z,66.25
2018-01-21T08:06:39.921Z,66.37
2018-01-21T08:09:11.028Z,66.59
2018-01-21T08:11:42.080Z,66.75
2018-01-21T08:14:13.147Z,66.87
2018-01-21T08:16:44.257Z,66.59
2018-01-21T08:19:15.341Z,66.25
2018-01-21T08:21:46.425Z,65.81
2018-01-21T08:24:17.528Z,65.74
2018-01-21T08:26:48.606Z,65.31
2018-01-21T08:29:19.834Z,65.72
2018-01-21T08:31:50.922Z,65.00
2018-01-21T08:34:28.102Z,64.88
2018-01-21T08:37:05.336Z,64.72
2018-01-21T08:42:43.680Z,64.73
2018-01-21T08:45:14.810Z,64.60
2018-01-21T08:47:45.842Z,63.86
2018-01-21T08:50:16.966Z,63.05
2018-01-21T08:52:48.026Z,62.59
2018-01-21T08:55:19.116Z,61.68
2018-01-21T08:57:50.503Z,60.59
2018-01-21T09:00:21.667Z,60.24
2018-01-21T09:02:52.780Z,60.57
2018-01-21T09:05:23.852Z,59.53
2018-01-21T09:07:56.371Z,59.30
2018-01-21T09:10:27.454Z,56.68
2018-01-21T09:12:58.581Z,54.09
2018-01-21T09:15:29.679Z,54.08
2018-01-21T09:18:01.245Z,54.96
2018-01-21T09:20:32.344Z,55.28
2018-01-21T09:23:03.471Z,56.29
2018-01-21T09:25:34.564Z,56.31
2018-01-21T09:28:05.618Z,56.87
2018-01-21T09:30:36.706Z,57.10
2018-01-21T09:33:07.776Z,57.19
2018-01-21T09:35:38.918Z,57.14
2018-01-21T09:38:10.031Z,57.42
2018-01-21T09:40:41.109Z,56.45
2018-01-21T09:43:12.179Z,56.92
2018-01-21T09:45:43.294Z,56.63
2018-01-21T09:48:14.428Z,56.79
2018-01-21T09:50:45.519Z,56.17
2018-01-21T09:53:16.552Z,56.67
2018-01-21T09:55:47.646Z,57.02
2018-01-21T09:58:18.697Z,56.67
2018-01-21T10:00:49.814Z,56.48
2018-01-21T10:03:20.854Z,56.99
2018-01-21T10:05:51.953Z,56.84
2018-01-21T10:08:23.025Z,56.99
2018-01-21T10:10:54.101Z,57.18
2018-01-21T10:13:25.897Z,57.31
2018-01-21T10:15:57.086Z,56.65
2018-01-21T10:18:28.180Z,55.85
2018-01-21T10:20:59.294Z,55.55
2018-01-21T10:23:30.350Z,55.08
2018-01-21T10:26:01.622Z,54.76
2018-01-21T10:28:32.716Z,54.82
2018-01-21T10:31:03.792Z,53.56
2018-01-21T10:33:34.896Z,53.68
2018-01-21T10:36:05.955Z,53.86
2018-01-21T10:38:37.032Z,54.28
2018-01-21T10:41:08.132Z,54.29
2018-01-21T10:43:39.195Z,54.70
2018-01-21T10:46:10.260Z,55.00
2018-01-21T10:48:41.344Z,54.45
2018-01-21T10:51:12.439Z,54.79
2018-01-21T10:53:49.832Z,54.93
2018-01-21T10:56:20.948Z,55.13
2018-01-21T10:58:52.040Z,55.45
2018-01-21T11:01:23.151Z,55.17
2018-01-21T11:03:54.255Z,55.04
2018-01-21T11:06:25.312Z,55.72
2018-01-21T11:08:56.383Z,56.03
2018-01-21T11:11:28.029Z,56.03
2018-01-21T11:13:59.103Z,55.81
2018-01-21T11:16:30.175Z,56.02
2018-01-21T11:19:01.270Z,55.94
2018-01-21T11:21:32.404Z,56.45
2018-01-21T11:24:03.480Z,56.08
2018-01-21T11:26:34.540Z,56.12
2018-01-21T11:29:05.626Z,55.80
2018-01-21T11:31:36.684Z,56.14
2018-01-21T11:34:07.760Z,56.10
2018-01-21T11:36:38.881Z,56.33
2018-01-21T11:39:09.969Z,56.11
2018-01-21T11:41:41.108Z,56.26
2018-01-21T11:44:12.202Z,56.17
2018-01-21T11:46:43.293Z,56.84
2018-01-21T11:49:14.526Z,56.70
2018-01-21T11:51:45.604Z,56.99
2018-01-21T11:54:16.691Z,58.31
2018-01-21T11:56:47.789Z,58.46
2018-01-21T11:59:18.890Z,58.59
2018-01-21T12:01:50.006Z,58.54
2018-01-21T12:04:21.227Z,58.54
2018-01-21T12:06:52.268Z,58.34
2018-01-21T12:09:23.380Z,58.94
2018-01-21T12:11:54.429Z,59.50
2018-01-21T12:14:25.521Z,59.05
2018-01-21T12:16:56.607Z,59.22
2018-01-21T12:19:27.856Z,58.89
2018-01-21T12:21:58.932Z,59.23
2018-01-21T12:24:30.015Z,59.32
2018-01-21T12:27:01.068Z,58.91
2018-01-21T12:29:32.205Z,58.73
2018-01-21T12:32:03.308Z,58.95
2018-01-21T12:34:34.396Z,58.79
2018-01-21T12:37:05.488Z,58.46
2018-01-21T12:39:36.598Z,59.12
2018-01-21T12:42:07.694Z,59.61
2018-01-21T12:44:38.754Z,59.81
2018-01-21T12:47:10.053Z,59.66
2018-01-21T12:49:41.167Z,59.39
2018-01-21T12:52:12.257Z,59.51
2018-01-21T12:54:43.366Z,59.61
2018-01-21T12:57:14.429Z,59.97
2018-01-21T12:59:45.546Z,60.23
2018-01-21T13:02:16.605Z,59.70
2018-01-21T13:04:47.791Z,59.73
2018-01-21T13:07:18.856Z,59.34
2018-01-21T13:09:49.911Z,59.35
2018-01-21T13:12:21.009Z,59.56
2018-01-21T13:14:52.110Z,59.62
2018-01-21T13:17:23.184Z,59.35
2018-01-21T13:19:54.213Z,59.93
2018-01-21T13:22:25.370Z,59.88
2018-01-21T13:24:56.467Z,59.72
2018-01-21T13:27:27.577Z,59.69
2018-01-21T13:29:58.676Z,59.55
2018-01-21T13:32:29.735Z,59.68
2018-01-21T13:35:00.874Z,59.85
2018-01-21T13:37:31.947Z,60.08
2018-01-21T13:40:03.086Z,59.81
2018-01-21T13:42:34.147Z,60.24
2018-01-21T13:45:05.221Z,60.05
2018-01-21T13:47:36.300Z,60.44
2018-01-21T13:50:07.423Z,60.72
2018-01-21T13:52:38.532Z,60.92
2018-01-21T13:55:09.641Z,60.79
2018-01-21T13:57:40.744Z,60.75
2018-01-21T14:00:11.868Z,60.96
2018-01-21T14:02:42.986Z,60.96
2018-01-21T14:05:14.033Z,60.90
2018-01-21T14:07:45.154Z,60.70
2018-01-21T14:10:16.289Z,60.50
2018-01-21T14:12:47.356Z,60.45
2018-01-21T14:15:18.451Z,60.58
2018-01-21T14:17:49.523Z,60.40
2018-01-21T14:20:20.638Z,60.51
2018-01-21T14:22:51.762Z,60.10
2018-01-21T14:25:22.872Z,60.28
2018-01-21T14:27:53.931Z,60.60
2018-01-21T14:30:25.055Z,60.71
2018-01-21T14:32:56.130Z,60.73
2018-01-21T14:35:27.191Z,60.90
2018-01-21T14:37:58.264Z,60.67
2018-01-21T14:40:29.334Z,60.88
2018-01-21T14:43:00.441Z,60.91
2018-01-21T14:45:31.548Z,60.96
2018-01-21T14:48:02.649Z,60.82
2018-01-21T14:50:33.748Z,60.77
2018-01-21T14:53:04.901Z,60.72
2018-01-21T14:55:35.991Z,60.65
2018-01-21T14:58:07.068Z,60.45
2018-01-21T15:00:40.046Z,60.40
2018-01-21T15:03:11.105Z,60.18
2018-01-21T15:05:42.214Z,59.99
2018-01-21T15:08:13.320Z,60.19
2018-01-21T15:10:44.396Z,59.42
2018-01-21T15:13:15.463Z,59.30
2018-01-21T15:15:46.576Z,59.24
2018-01-21T15:18:17.662Z,58.93
2018-01-21T15:20:48.780Z,58.80
2018-01-21T15:23:19.868Z,58.91
2018-01-21T15:25:50.980Z,59.06
2018-01-21T15:28:22.060Z,58.80
2018-01-21T15:30:53.133Z,58.83
2018-01-21T15:33:24.232Z,59.21
2018-01-21T15:35:55.319Z,59.36
2018-01-21T15:38:26.448Z,59.75
2018-01-21T15:40:57.542Z,59.83
2018-01-21T15:43:28.883Z,59.56
2018-01-21T15:45:59.983Z,59.51
2018-01-21T15:48:31.056Z,59.64
2018-01-21T15:51:02.090Z,59.77
2018-01-21T15:53:33.258Z,59.69
2018-01-21T15:56:04.385Z,59.42
2018-01-21T15:58:35.473Z,59.46
2018-01-21T16:01:06.560Z,59.69
2018-01-21T16:03:37.678Z,59.67
2018-01-21T16:06:08.761Z,59.56
2018-01-21T16:08:39.895Z,59.60
2018-01-21T16:11:10.985Z,59.86
2018-01-21T16:13:42.080Z,59.54
2018-01-21T16:16:13.199Z,59.38
2018-01-21T16:18:44.320Z,59.49
2018-01-21T16:21:15.431Z,59.59
2018-01-21T16:23:46.515Z,59.58
2018-01-21T16:26:17.580Z,59.42
2018-01-21T16:28:48.678Z,59.56
2018-01-21T16:31:19.766Z,59.71
2018-01-21T16:33:50.828Z,60.03
2018-01-21T16:36:26.751Z,60.58
2018-01-21T16:38:58.864Z,61.54
2018-01-21T16:41:29.916Z,62.00
2018-01-21T16:44:01.042Z,62.34
2018-01-21T16:46:32.676Z,62.60
2018-01-21T16:49:03.838Z,63.08
2018-01-21T16:51:34.941Z,63.73
2018-01-21T16:54:06.008Z,64.30
2018-01-21T16:56:37.357Z,64.77
2018-01-21T16:59:08.427Z,65.19
2018-01-21T17:01:39.558Z,65.44
2018-01-21T17:04:10.618Z,65.79
2018-01-21T17:06:41.698Z,65.73
2018-01-21T17:09:12.801Z,66.15
2018-01-21T17:11:44.590Z,66.32
2018-01-21T17:14:15.679Z,66.67
2018-01-21T17:16:46.763Z,66.75
2018-01-21T17:19:17.841Z,66.71
2018-01-21T17:21:48.989Z,66.46
2018-01-21T17:24:20.086Z,66.97
2018-01-21T17:26:51.910Z,66.92
2018-01-21T17:29:22.968Z,67.03
2018-01-21T17:31:54.039Z,67.38
2018-01-21T17:34:25.097Z,67.51
2018-01-21T17:36:56.255Z,67.98
2018-01-21T17:39:27.370Z,68.02
2018-01-21T17:41:58.489Z,68.14
2018-01-21T17:44:29.563Z,68.26
2018-01-21T17:47:00.808Z,68.34
2018-01-21T17:49:32.047Z,68.54
2018-01-21T17:52:03.172Z,68.91
2018-01-21T17:54:34.254Z,69.05
2018-01-21T17:57:05.393Z,69.12
2018-01-21T17:59:36.458Z,69.23
2018-01-21T18:02:07.541Z,69.27
2018-01-21T18:04:38.614Z,69.53
2018-01-21T18:07:09.728Z,69.37
2018-01-21T18:09:41.010Z,69.46
2018-01-21T18:12:12.085Z,69.47
2018-01-21T18:14:43.196Z,69.63
2018-01-21T18:17:14.328Z,69.87
2018-01-21T18:19:45.455Z,69.69
2018-01-21T18:22:16.604Z,69.65
2018-01-21T18:24:47.751Z,69.74
2018-01-21T18:27:18.951Z,70.03
2018-01-21T18:29:50.092Z,69.88
2018-01-21T18:32:21.468Z,69.78
2018-01-21T18:34:52.567Z,69.84
2018-01-21T18:37:23.618Z,69.94
2018-01-21T18:39:54.715Z,70.15
2018-01-21T18:42:25.808Z,70.25
2018-01-21T18:44:57.946Z,70.37
2018-01-21T18:47:29.005Z,70.43
2018-01-21T18:50:00.198Z,70.50
2018-01-21T18:52:31.232Z,70.39
2018-01-21T18:55:02.376Z,70.19
2018-01-21T18:57:33.464Z,70.19
2018-01-21T19:00:04.729Z,70.00
2018-01-21T19:02:35.809Z,69.92
2018-01-21T19:05:06.882Z,69.76
2018-01-21T19:07:37.946Z,70.32
2018-01-21T19:10:09.012Z,70.53
2018-01-21T19:12:40.100Z,70.74
2018-01-21T19:15:11.178Z,70.68
2018-01-21T19:17:42.263Z,70.67
2018-01-21T19:20:13.378Z,70.56
2018-01-21T19:22:44.419Z,70.44
2018-01-21T19:25:15.509Z,70.81
2018-01-21T19:27:46.535Z,71.16
2018-01-21T19:30:17.656Z,71.44
2018-01-21T19:32:48.759Z,71.84
2018-01-21T19:35:19.967Z,72.58
2018-01-21T19:37:51.138Z,73.05
2018-01-21T19:40:25.180Z,73.05
2018-01-21T19:43:02.304Z,73.28
2018-01-21T19:45:33.430Z,73.14
2018-01-21T19:48:04.489Z,73.33
2018-01-21T19:50:35.518Z,73.18
2018-01-21T19:53:06.688Z,72.93
2018-01-21T19:55:37.817Z,72.58
2018-01-21T19:58:08.868Z,72.04
2018-01-21T20:00:40.207Z,71.91
2018-01-21T20:03:11.322Z,71.78
2018-01-21T20:05:42.442Z,71.66
2018-01-21T20:08:13.591Z,71.52
2018-01-21T20:10:44.662Z,71.59
2018-01-21T20:13:15.818Z,71.61
2018-01-21T20:15:46.903Z,71.65
2018-01-21T20:18:18.120Z,71.76
2018-01-21T20:20:49.206Z,71.70
2018-01-21T20:23:20.294Z,71.52
2018-01-21T20:25:51.329Z,71.40
2018-01-21T20:28:22.460Z,71.64
2018-01-21T20:30:54.112Z,72.08
2018-01-21T20:33:25.233Z,72.23
2018-01-21T20:35:56.326Z,72.67
2018-01-21T20:38:27.457Z,73.06
2018-01-21T20:40:58.543Z,73.35
2018-01-21T20:43:29.625Z,73.26
2018-01-21T20:46:00.805Z,73.43
2018-01-21T20:48:31.878Z,73.65
2018-01-21T20:51:09.049Z,73.47
2018-01-21T20:53:46.165Z,73.50
2018-01-21T20:56:17.334Z,73.95
2018-01-21T20:58:48.405Z,74.22
2018-01-21T21:01:19.802Z,74.23
2018-01-21T21:03:50.852Z,74.02
2018-01-21T21:06:21.971Z,74.15
2018-01-21T21:08:53.082Z,74.00
2018-01-21T21:11:24.138Z,73.99
2018-01-21T21:13:55.233Z,73.82
2018-01-21T21:16:26.311Z,73.53
2018-01-21T21:18:57.416Z,73.50
2018-01-21T21:21:28.461Z,73.45
2018-01-21T21:23:59.571Z,73.39
2018-01-21T21:26:31.323Z,73.13
2018-01-21T21:29:02.426Z,73.11
2018-01-21T21:31:33.527Z,73.08
2018-01-21T21:34:04.618Z,72.93
2018-01-21T21:36:35.735Z,72.89
2018-01-21T21:39:06.774Z,72.59
2018-01-21T21:41:38.658Z,72.49
2018-01-21T21:44:09.710Z,72.37
2018-01-21T21:46:41.490Z,72.46
2018-01-21T21:49:12.568Z,72.59
2018-01-21T21:51:43.661Z,72.49
2018-01-21T21:54:14.731Z,72.69
2018-01-21T21:56:45.811Z,72.94
2018-01-21T21:59:16.897Z,72.99
2018-01-21T22:01:48.004Z,72.85
2018-01-21T22:04:19.065Z,72.84
2018-01-21T22:06:50.205Z,72.93
2018-01-21T22:09:21.278Z,72.97
2018-01-21T22:11:52.367Z,72.98
2018-01-21T22:14:23.420Z,72.99
2018-01-21T22:16:54.538Z,72.96
2018-01-21T22:19:25.656Z,73.06
2018-01-21T22:21:56.751Z,73.23
2018-01-21T22:24:27.802Z,73.22
2018-01-21T22:26:58.915Z,73.19
2018-01-21T22:29:29.973Z,73.77
2018-01-21T22:32:01.088Z,73.53
2018-01-21T22:34:32.137Z,73.50
2018-01-21T22:37:03.279Z,73.56
2018-01-21T22:39:34.321Z,73.25
2018-01-21T22:42:05.402Z,73.18
2018-01-21T22:44:36.490Z,73.01
2018-01-21T22:47:07.554Z,72.78
2018-01-21T22:49:38.685Z,72.66
2018-01-21T22:52:09.785Z,72.33
2018-01-21T22:54:40.918Z,72.19
2018-01-21T22:57:12.929Z,71.89
2018-01-21T22:59:44.091Z,71.71
2018-01-21T23:02:15.110Z,71.56
2018-01-21T23:04:46.323Z,71.56
2018-01-21T23:07:17.478Z,71.56
2018-01-21T23:09:48.564Z,71.43
2018-01-21T23:12:19.703Z,71.43
2018-01-21T23:14:50.739Z,71.71
2018-01-21T23:17:21.855Z,71.92
2018-01-21T23:19:52.917Z,72.25
2018-01-21T23:22:24.008Z,72.34
2018-01-21T23:24:55.096Z,72.32
2018-01-21T23:27:26.202Z,72.27
2018-01-21T23:29:57.322Z,72.31
2018-01-21T23:32:28.373Z,72.27
2018-01-21T23:34:59.489Z,72.18
2018-01-21T23:37:30.539Z,71.90
2018-01-21T23:40:01.672Z,71.60
2018-01-21T23:42:32.716Z,71.36
2018-01-21T23:45:03.844Z,71.19
2018-01-21T23:47:41.984Z,71.17
2018-01-21T23:50:13.113Z,71.12
2018-01-21T23:52:44.215Z,71.18
2018-01-21T23:55:15.344Z,71.25
2018-01-21T23:57:46.486Z,70.97
